Time;durP1;ratioP1;P1;durP2;ratioP2;P2;SDS_P1;SDS_P2;PMS_P1;PMS_P2;Temp;Humidity;BMP_temperature;BMP_pressure;BME280_temperature;BME280_humidity;BME280_pressure;Samples;Min_cycle;Max_cycle;Signal;HPM_P1;HPM_P2
2024/02/19 00:02:15;;;;;;;30.05;5.00;;;;;;;-146.27;93.87;42180.31;5070055;28;20016;-73
2024/02/19 00:04:40;;;;;;;28.33;3.42;;;;;;;-146.27;93.96;42138.53;5071883;28;20431;-73
2024/02/19 00:07:06;;;;;;;32.78;4.00;;;;;;;-146.27;93.22;42164.41;5071025;28;20567;-73
2024/02/19 00:09:31;;;;;;;31.98;3.65;;;;;;;-146.27;92.98;42204.16;5069967;28;20906;-73
2024/02/19 00:11:57;;;;;;;29.92;3.70;;;;;;;-146.27;93.76;42198.19;5062930;28;20082;-72
2024/02/19 00:14:22;;;;;;;31.30;4.53;;;;;;;-146.27;93.92;42206.16;5070707;28;20035;-71
2024/02/19 00:16:48;;;;;;;25.65;3.55;;;;;;;-146.27;94.13;42230.03;5072522;28;20535;-74
2024/02/19 00:19:13;;;;;;;32.65;3.65;;;;;;;-146.27;94.33;42202.19;5069576;28;20029;-73
2024/02/19 00:21:39;;;;;;;22.15;3.15;;;;;;;-146.27;94.34;42243.94;5072018;28;20104;-73
2024/02/19 00:24:05;;;;;;;32.03;5.28;;;;;;;-146.27;93.69;42230.03;5071036;28;20103;-73
2024/02/19 00:26:30;;;;;;;35.15;3.85;;;;;;;-146.27;93.90;42309.56;5069763;28;20423;-73
2024/02/19 00:28:55;;;;;;;40.58;5.20;;;;;;;-146.27;93.31;42236.00;5069545;28;20020;-73
2024/02/19 00:31:21;;;;;;;22.27;3.80;;;;;;;-146.27;93.93;42239.97;5070397;28;20139;-72
2024/02/19 00:33:47;;;;;;;29.75;3.55;;;;;;;-146.27;93.71;42269.78;5069653;28;20028;-72
2024/02/19 00:36:12;;;;;;;27.00;3.47;;;;;;;-146.27;94.24;42301.63;5068734;28;20118;-72
2024/02/19 00:38:38;;;;;;;35.00;3.88;;;;;;;-146.27;94.29;42253.88;5070725;28;20078;-74
2024/02/19 00:41:03;;;;;;;32.47;3.88;;;;;;;-146.27;94.42;42275.75;5068326;28;20020;-73
2024/02/19 00:43:30;;;;;;;34.72;3.80;;;;;;;-146.27;94.17;42249.91;5059816;28;20021;-73
2024/02/19 00:45:56;;;;;;;27.80;3.20;;;;;;;-146.27;94.03;42305.59;5078685;28;20027;-73
2024/02/19 00:48:22;;;;;;;31.83;3.45;;;;;;;-146.27;93.40;42226.03;5071172;28;20119;-73
2024/02/19 00:50:48;;;;;;;31.88;3.83;;;;;;;-146.27;93.50;42289.69;5071557;28;20052;-73
2024/02/19 00:53:13;;;;;;;28.83;3.53;;;;;;;-146.27;93.59;42249.91;5071010;28;20413;-74
2024/02/19 00:55:38;;;;;;;30.65;3.83;;;;;;;-146.27;93.95;42249.91;5070006;28;20033;-73
2024/02/19 00:58:04;;;;;;;26.17;3.97;;;;;;;-146.27;93.41;42279.75;5067849;28;20399;-73
2024/02/19 01:00:30;;;;;;;40.75;4.57;;;;;;;-146.27;93.34;42253.88;5058246;28;21120;-73
2024/02/19 01:02:56;;;;;;;25.98;2.90;;;;;;;-146.27;93.21;42253.88;5069147;28;20025;-74
2024/02/19 01:05:21;;;;;;;31.63;3.63;;;;;;;-146.27;92.90;42281.72;5068759;28;20047;-73
2024/02/19 01:07:47;;;;;;;23.17;3.13;;;;;;;-146.27;92.98;42277.75;5066753;28;20028;-72
2024/02/19 01:10:12;;;;;;;33.10;3.63;;;;;;;-146.27;92.97;42281.72;5069404;28;20119;-74
2024/02/19 01:12:38;;;;;;;33.10;3.58;;;;;;;-146.27;93.42;42299.63;5068793;28;20032;-74
2024/02/19 01:15:05;;;;;;;24.05;3.67;;;;;;;-146.27;93.06;42277.75;5070759;28;20028;-74
2024/02/19 01:17:30;;;;;;;29.02;3.50;;;;;;;-146.27;92.73;42277.75;5069165;28;20065;-73
2024/02/19 01:19:57;;;;;;;24.27;2.85;;;;;;;-146.27;93.08;42287.69;5069161;28;20032;-73
2024/02/19 01:22:24;;;;;;;27.30;2.75;;;;;;;-146.27;92.41;42277.75;5066079;28;20044;-73
2024/02/19 01:24:50;;;;;;;19.33;3.80;;;;;;;-146.27;92.70;42295.66;5069683;28;20527;-73
2024/02/19 01:27:15;;;;;;;22.95;3.13;;;;;;;-146.27;92.72;42287.69;5069502;28;20062;-73
2024/02/19 01:29:41;;;;;;;39.53;5.65;;;;;;;-146.27;92.52;42293.66;5066583;28;20038;-74
2024/02/19 01:32:06;;;;;;;29.25;3.35;;;;;;;-146.27;92.44;42317.53;5066127;28;20024;-73
2024/02/19 01:34:31;;;;;;;26.20;3.28;;;;;;;-146.27;92.80;42309.56;5068943;28;20040;-74
2024/02/19 01:36:57;;;;;;;24.77;3.30;;;;;;;-146.27;92.20;42305.59;5069755;28;20012;-73
2024/02/19 01:39:23;;;;;;;28.55;3.95;;;;;;;-146.27;91.93;42297.63;5068080;28;20059;-73
2024/02/19 01:41:48;;;;;;;23.83;3.22;;;;;;;-146.27;92.12;42329.47;5068742;28;20082;-73
2024/02/19 01:44:14;;;;;;;26.83;2.80;;;;;;;-146.27;92.62;42363.25;5066665;28;20036;-73
2024/02/19 01:46:42;;;;;;;22.98;3.35;;;;;;;-146.27;92.15;42317.53;5069161;28;20052;-74
2024/02/19 01:49:10;;;;;;;27.20;3.90;;;;;;;-146.27;91.66;42353.31;5066533;28;20043;-73
2024/02/19 01:51:37;;;;;;;26.83;3.28;;;;;;;-146.27;91.38;42345.38;5068301;28;20032;-74
2024/02/19 01:54:03;;;;;;;23.35;3.67;;;;;;;-146.27;91.07;42317.53;5064741;28;20037;-73
2024/02/19 01:56:29;;;;;;;17.42;3.10;;;;;;;-146.27;91.02;42313.53;5069591;28;20074;-73
2024/02/19 01:58:56;;;;;;;21.63;2.75;;;;;;;-146.27;91.73;42395.09;5066430;28;20024;-73
2024/02/19 02:01:23;;;;;;;22.05;3.42;;;;;;;-146.27;91.75;42373.22;5066420;28;20031;-73
2024/02/19 02:03:51;;;;;;;13.77;2.90;;;;;;;-146.27;91.97;42418.94;5066141;28;20416;-73
2024/02/19 02:06:16;;;;;;;20.33;2.78;;;;;;;-146.27;91.71;42391.09;5069202;28;20495;-73
2024/02/19 02:08:41;;;;;;;23.58;2.30;;;;;;;-146.27;90.90;42347.34;5067858;28;20036;-73
2024/02/19 02:11:07;;;;;;;20.80;2.83;;;;;;;-146.27;90.32;42361.28;5067039;28;20472;-74
2024/02/19 02:13:33;;;;;;;22.88;2.83;;;;;;;-146.27;90.38;42401.06;5066301;28;20043;-73
2024/02/19 02:16:03;;;;;;;17.77;3.42;;;;;;;-146.27;90.62;42355.31;5065742;28;20048;-73
2024/02/19 02:18:32;;;;;;;18.30;3.20;;;;;;;-146.27;90.39;42460.72;5066392;28;20054;-73
2024/02/19 02:20:58;;;;;;;16.02;2.45;;;;;;;-146.27;90.14;42375.19;5069632;28;20099;-72
2024/02/19 02:23:25;;;;;;;24.92;3.33;;;;;;;-146.27;90.04;42416.97;5068017;28;20154;-73
2024/02/19 02:25:51;;;;;;;22.10;2.50;;;;;;;-146.27;89.68;42424.91;5068923;28;20044;-74
2024/02/19 02:28:16;;;;;;;20.00;2.47;;;;;;;-146.27;90.15;42418.94;5065693;28;20047;-73
2024/02/19 02:30:42;;;;;;;24.73;2.97;;;;;;;-146.27;89.98;42436.84;5067830;28;20024;-74
2024/02/19 02:33:07;;;;;;;22.20;3.42;;;;;;;-146.27;89.83;42420.94;5066687;28;20027;-73
2024/02/19 02:35:33;;;;;;;27.20;3.35;;;;;;;-146.27;90.23;42506.44;5068167;28;20028;-73
2024/02/19 02:37:59;;;;;;;19.90;2.50;;;;;;;-146.27;89.65;42391.09;5067832;28;20032;-74
2024/02/19 02:40:25;;;;;;;23.98;2.92;;;;;;;-146.27;89.24;42448.78;5069851;28;20468;-73
2024/02/19 02:42:51;;;;;;;19.67;2.38;;;;;;;-146.27;89.26;42418.94;5062689;28;20031;-73
2024/02/19 02:45:16;;;;;;;25.50;3.78;;;;;;;-146.27;88.89;42458.72;5061605;28;20017;-74
2024/02/19 02:47:41;;;;;;;20.75;3.20;;;;;;;-146.27;89.45;42516.41;5058728;28;20083;-74
2024/02/19 02:50:07;;;;;;;16.65;2.17;;;;;;;-146.27;89.20;42494.53;5066402;28;20419;-74
2024/02/19 02:52:32;;;;;;;18.73;2.65;;;;;;;-146.27;89.04;42476.63;5068367;28;20451;-74
2024/02/19 02:54:58;;;;;;;20.17;2.28;;;;;;;-146.27;88.57;42542.25;5068649;28;20024;-74
2024/02/19 02:57:23;;;;;;;21.23;2.75;;;;;;;-146.27;88.78;42502.47;5068368;28;20377;-74
2024/02/19 02:59:48;;;;;;;14.35;2.03;;;;;;;-146.27;88.32;42508.44;5067570;28;20138;-74
2024/02/19 03:02:14;;;;;;;22.95;2.30;;;;;;;-146.27;87.84;42480.59;5066700;28;20016;-74
2024/02/19 03:04:39;;;;;;;23.65;3.70;;;;;;;-146.27;88.20;42500.47;5068530;28;20020;-74
2024/02/19 03:07:05;;;;;;;15.30;2.55;;;;;;;-146.27;88.16;42544.25;5066816;28;20054;-74
2024/02/19 03:09:30;;;;;;;13.48;2.25;;;;;;;-146.27;87.22;42500.47;5069214;28;20111;-74
2024/02/19 03:11:56;;;;;;;15.23;2.58;;;;;;;-146.27;86.71;42500.47;5066563;28;20483;-75
2024/02/19 03:14:21;;;;;;;21.25;2.67;;;;;;;-146.27;86.72;42520.38;5067437;28;20109;-73
2024/02/19 03:16:47;;;;;;;14.93;3.05;;;;;;;-146.27;86.25;42526.34;5068461;28;20064;-74
2024/02/19 03:19:13;;;;;;;12.25;2.00;;;;;;;-146.27;86.61;42536.28;5062328;28;20447;-74
2024/02/19 03:21:40;;;;;;;12.68;1.90;;;;;;;-146.27;86.02;42524.34;5071220;28;20025;-74
2024/02/19 03:24:07;;;;;;;10.00;1.60;;;;;;;-146.27;85.97;42540.25;5071441;28;20066;-74
2024/02/19 03:26:33;;;;;;;15.65;2.80;;;;;;;-146.27;85.88;42574.06;5071584;28;20056;-74
2024/02/19 03:28:58;;;;;;;18.08;2.13;;;;;;;-146.27;85.86;42611.84;5068840;28;20052;-74
2024/02/19 03:31:24;;;;;;;11.50;1.98;;;;;;;-146.27;85.16;42560.16;5072117;28;20020;-74
2024/02/19 03:33:49;;;;;;;11.43;1.60;;;;;;;-146.27;84.95;42619.81;5071502;28;20112;-74
2024/02/19 03:36:16;;;;;;;16.88;1.83;;;;;;;-146.27;84.38;42574.06;5073144;28;20031;-74
2024/02/19 03:38:42;;;;;;;16.33;2.13;;;;;;;-146.27;84.85;42667.53;5076381;28;20074;-73
2024/02/19 03:41:07;;;;;;;14.35;1.90;;;;;;;-146.27;84.53;42595.94;5074766;28;20024;-74
2024/02/19 03:43:34;;;;;;;14.93;2.83;;;;;;;-146.27;84.27;42601.91;5072872;28;20020;-74
2024/02/19 03:46:01;;;;;;;13.85;1.73;;;;;;;-146.27;84.40;42645.66;5082884;28;20025;-74
2024/02/19 03:48:27;;;;;;;18.83;2.08;;;;;;;-146.27;84.07;42631.75;5074310;28;20024;-74
2024/02/19 03:50:53;;;;;;;15.80;2.45;;;;;;;-146.27;84.45;42599.94;5078467;28;20436;-74
2024/02/19 03:53:19;;;;;;;23.88;2.60;;;;;;;-146.27;84.93;42631.75;5093522;28;20026;-74
2024/02/19 03:55:44;;;;;;;17.85;2.80;;;;;;;-146.27;85.26;42635.72;5068850;28;20036;-75
2024/02/19 03:58:09;;;;;;;23.70;2.97;;;;;;;-146.27;84.96;42552.19;5071343;28;20533;-72
2024/02/19 04:00:35;;;;;;;10.02;2.22;;;;;;;-146.27;85.11;42576.06;5077144;28;20601;-74
2024/02/19 04:03:00;;;;;;;17.95;2.53;;;;;;;-146.27;85.36;42528.31;5074229;28;20883;-72
2024/02/19 04:05:25;;;;;;;17.75;2.80;;;;;;;-146.27;85.63;42520.38;5071487;28;20408;-72
2024/02/19 04:07:51;;;;;;;17.83;2.95;;;;;;;-146.27;86.77;42520.38;5070202;28;20028;-73
2024/02/19 04:10:16;;;;;;;14.60;3.00;;;;;;;-146.27;86.93;42486.56;5067293;28;20048;-72
2024/02/19 04:12:41;;;;;;;19.23;4.03;;;;;;;-146.27;87.10;42424.91;5068284;28;20032;-74
2024/02/19 04:15:07;;;;;;;19.45;2.90;;;;;;;-146.27;86.92;42426.91;5071398;28;20020;-71
2024/02/19 04:17:33;;;;;;;14.40;3.38;;;;;;;-146.27;87.54;42420.94;5069872;28;20042;-73
2024/02/19 04:19:58;;;;;;;13.50;2.50;;;;;;;-146.27;87.84;42464.69;5062817;28;20055;-72
2024/02/19 04:22:24;;;;;;;18.40;3.05;;;;;;;-146.27;88.10;42434.84;5069595;28;20040;-74
2024/02/19 04:24:50;;;;;;;14.90;2.90;;;;;;;-146.27;88.66;42470.66;5070547;28;20064;-72
2024/02/19 04:27:17;;;;;;;13.48;2.85;;;;;;;-146.27;88.24;42389.13;5071160;28;20082;-72
2024/02/19 04:29:43;;;;;;;16.35;2.88;;;;;;;-146.27;88.24;42359.28;5069610;28;20032;-73
2024/02/19 04:32:09;;;;;;;10.02;2.38;;;;;;;-146.27;87.40;42307.56;5070321;28;20554;-72
2024/02/19 04:34:34;;;;;;;14.07;2.60;;;;;;;-146.27;88.02;42373.22;5067779;28;20021;-72
2024/02/19 04:37:01;;;;;;;12.65;2.85;;;;;;;-146.27;88.35;42401.06;5070206;28;20436;-72
2024/02/19 04:39:26;;;;;;;15.52;2.25;;;;;;;-146.27;88.20;42428.88;5070425;28;20099;-73
2024/02/19 04:41:52;;;;;;;19.60;2.60;;;;;;;-146.27;88.24;42387.13;5070092;28;20119;-73
2024/02/19 04:44:17;;;;;;;11.52;2.55;;;;;;;-146.27;87.83;42341.38;5060611;28;20077;-74
2024/02/19 04:46:42;;;;;;;20.00;2.97;;;;;;;-146.27;88.02;42373.22;5066466;28;20028;-71
2024/02/19 04:49:08;;;;;;;14.85;2.55;;;;;;;-146.27;88.30;42373.22;5057380;28;20025;-72
2024/02/19 04:51:33;;;;;;;16.60;2.97;;;;;;;-146.27;88.67;42411.00;5063809;28;20028;-72
2024/02/19 04:53:58;;;;;;;15.60;3.17;;;;;;;-146.27;88.69;42333.44;5071130;28;20150;-73
2024/02/19 04:56:25;;;;;;;11.80;2.50;;;;;;;-146.27;88.59;42401.06;5069803;28;20095;-72
2024/02/19 04:58:50;;;;;;;18.55;3.03;;;;;;;-146.27;88.96;42407.00;5071519;28;20111;-73
2024/02/19 05:01:15;;;;;;;11.10;3.00;;;;;;;-146.27;88.05;42357.28;5069644;28;20159;-71
2024/02/19 05:03:41;;;;;;;10.15;2.60;;;;;;;-146.27;87.62;42349.34;5070864;28;20024;-72
2024/02/19 05:06:07;;;;;;;15.48;2.53;;;;;;;-146.27;87.75;42365.25;5070109;28;20105;-72
2024/02/19 05:08:32;;;;;;;13.23;2.53;;;;;;;-146.27;88.02;42377.19;5068844;28;20179;-73
2024/02/19 05:10:58;;;;;;;10.35;2.40;;;;;;;-146.27;88.08;42381.16;5071013;28;20036;-74
2024/02/19 05:13:24;;;;;;;12.30;2.83;;;;;;;-146.27;88.75;42381.16;5070971;28;20037;-74
2024/02/19 05:15:50;;;;;;;23.13;4.20;;;;;;;-146.27;89.64;42442.81;5069495;28;20058;-74
2024/02/19 05:18:15;;;;;;;10.63;2.58;;;;;;;-146.27;89.67;42444.81;5065070;28;20472;-73
2024/02/19 05:20:40;;;;;;;14.68;2.92;;;;;;;-146.27;89.47;42409.00;5060722;28;20025;-73
2024/02/19 05:23:06;;;;;;;15.23;3.10;;;;;;;-146.27;89.00;42375.19;5068336;28;20028;-74
2024/02/19 05:25:31;;;;;;;12.13;2.53;;;;;;;-146.27;88.65;42351.34;5068333;28;20056;-76
2024/02/19 05:28:00;;;;;;;10.88;2.90;;;;;;;-146.27;88.61;42377.19;5064248;28;20024;-75
2024/02/19 05:30:26;;;;;;;19.73;2.72;;;;;;;-146.27;88.89;42379.16;5062301;28;20039;-75
2024/02/19 05:32:53;;;;;;;10.00;3.30;;;;;;;-146.27;89.30;42448.78;5069581;28;20028;-74
2024/02/19 05:35:19;;;;;;;18.27;3.58;;;;;;;-146.27;89.42;42405.03;5064366;28;20548;-75
2024/02/19 05:37:44;;;;;;;14.10;2.95;;;;;;;-146.27;89.11;42412.97;5068136;28;20024;-75
2024/02/19 05:40:10;;;;;;;15.25;2.90;;;;;;;-146.27;89.64;42409.00;5070516;28;20055;-75
2024/02/19 05:42:36;;;;;;;19.73;3.10;;;;;;;-146.27;89.37;42440.81;5070347;28;20070;-75
2024/02/19 05:45:02;;;;;;;18.98;3.15;;;;;;;-146.27;89.06;42446.78;5069746;28;20035;-75
2024/02/19 05:47:29;;;;;;;23.73;4.25;;;;;;;-146.27;89.12;42405.03;5068067;28;20477;-75
2024/02/19 05:49:54;;;;;;;14.80;2.95;;;;;;;-146.27;89.32;42440.81;5059834;28;20677;-74
2024/02/19 05:52:20;;;;;;;20.67;4.07;;;;;;;-146.27;89.24;42405.03;5065992;28;20025;-75
2024/02/19 05:54:45;;;;;;;14.15;3.13;;;;;;;-146.27;88.97;42434.84;5067878;28;20028;-75
2024/02/19 05:57:11;;;;;;;12.48;3.05;;;;;;;-146.27;88.55;42412.97;5073648;28;20485;-75
2024/02/19 05:59:36;;;;;;;15.43;3.50;;;;;;;-146.27;88.40;42426.91;5069462;28;20060;-76
2024/02/19 06:02:01;;;;;;;8.13;2.83;;;;;;;-146.27;89.15;42500.47;5075725;28;20039;-75
2024/02/19 06:04:27;;;;;;;15.68;3.80;;;;;;;-146.27;89.00;42438.84;5067501;28;20027;-75
2024/02/19 06:06:53;;;;;;;11.38;3.10;;;;;;;-146.27;88.70;42450.75;5075129;28;20380;-75
2024/02/19 06:09:18;;;;;;;16.80;3.10;;;;;;;-146.27;89.02;42440.81;5069257;28;20534;-75
2024/02/19 06:11:44;;;;;;;21.25;3.70;;;;;;;-146.27;89.34;42436.84;5067591;28;20029;-75
2024/02/19 06:14:11;;;;;;;10.18;2.60;;;;;;;-146.27;89.32;42416.97;5069533;28;20108;-76
2024/02/19 06:16:36;;;;;;;15.90;3.03;;;;;;;-146.27;89.07;42424.91;5069915;28;20038;-74
2024/02/19 06:19:02;;;;;;;11.70;3.22;;;;;;;-146.27;88.83;42440.81;5069208;28;20040;-75
2024/02/19 06:21:28;;;;;;;10.85;3.03;;;;;;;-146.27;88.83;42452.75;5063038;28;20077;-75
2024/02/19 06:23:54;;;;;;;16.35;3.58;;;;;;;-146.27;89.99;42480.59;5068447;28;20554;-75
2024/02/19 06:26:20;;;;;;;19.88;3.60;;;;;;;-146.27;89.25;42440.81;5066801;28;20044;-75
2024/02/19 06:28:45;;;;;;;13.25;3.20;;;;;;;-146.27;89.29;42420.94;5062904;28;20055;-75
2024/02/19 06:31:10;;;;;;;11.35;2.78;;;;;;;-146.27;89.13;42434.84;5068119;28;20050;-75
2024/02/19 06:33:36;;;;;;;12.10;2.97;;;;;;;-146.27;89.56;42464.69;5067350;28;20432;-75
2024/02/19 06:36:01;;;;;;;16.92;3.25;;;;;;;-146.27;89.02;42436.84;5069655;28;20499;-75
2024/02/19 06:38:26;;;;;;;28.58;4.18;;;;;;;-146.27;89.43;42440.81;5066136;28;20573;-74
2024/02/19 06:40:55;;;;;;;17.25;2.75;;;;;;;-146.27;88.99;42440.81;5059305;28;20020;-75
2024/02/19 06:43:21;;;;;;;19.92;3.20;;;;;;;-146.27;88.64;42416.97;5060080;28;20456;-75
2024/02/19 06:45:46;;;;;;;18.75;3.10;;;;;;;-146.27;88.70;42450.75;5064786;28;20048;-75
2024/02/19 06:48:11;;;;;;;14.25;2.60;;;;;;;-146.27;88.77;42486.56;5068498;28;20020;-76
2024/02/19 06:50:37;;;;;;;14.38;3.20;;;;;;;-146.27;88.53;42484.56;5069038;28;20207;-73
2024/02/19 06:53:03;;;;;;;13.35;2.60;;;;;;;-146.27;89.10;42502.47;5069931;28;20032;-73
2024/02/19 06:55:28;;;;;;;16.20;3.40;;;;;;;-146.27;89.37;42532.31;5067545;28;20484;-74
2024/02/19 06:57:53;;;;;;;10.80;2.90;;;;;;;-146.27;89.16;42518.38;5063588;28;20426;-75
2024/02/19 07:00:19;;;;;;;15.73;3.60;;;;;;;-146.27;89.27;42510.44;5067700;28;20674;-75
2024/02/19 07:02:44;;;;;;;22.20;3.63;;;;;;;-146.27;89.62;42522.38;5071525;28;20529;-75
2024/02/19 07:05:10;;;;;;;17.40;3.40;;;;;;;-146.27;89.42;42578.03;5078633;28;20092;-75
2024/02/19 07:07:37;;;;;;;13.98;3.33;;;;;;;-146.27;89.78;42603.91;5078018;28;20047;-74
2024/02/19 07:10:03;;;;;;;23.75;4.30;;;;;;;-146.27;90.26;42671.53;5076929;28;21866;-74
2024/02/19 07:12:29;;;;;;;12.93;3.20;;;;;;;-146.27;90.29;42675.50;5077560;28;20029;-76
2024/02/19 07:14:55;;;;;;;15.18;2.80;;;;;;;-146.27;89.59;42687.44;5064505;28;20122;-76
2024/02/19 07:17:21;;;;;;;18.88;3.70;;;;;;;-146.27;89.56;42689.41;5080000;28;20028;-74
2024/02/19 07:19:46;;;;;;;15.05;3.72;;;;;;;-146.27;88.51;42741.13;5062991;28;20134;-74
2024/02/19 07:22:12;;;;;;;11.07;2.90;;;;;;;-146.27;88.19;42759.03;5067614;28;20103;-74
2024/02/19 07:24:39;;;;;;;16.60;3.65;;;;;;;-146.27;88.82;42818.69;5069535;28;20384;-75
2024/02/19 07:27:05;;;;;;;18.38;3.45;;;;;;;-146.27;89.24;42802.78;5069128;28;20039;-73
2024/02/19 07:29:30;;;;;;;10.95;3.50;;;;;;;-146.27;88.59;42765.00;5069858;28;20055;-73
2024/02/19 07:31:56;;;;;;;16.10;4.15;;;;;;;-146.27;89.32;42838.59;5067913;28;20024;-74
2024/02/19 07:34:21;;;;;;;13.27;3.53;;;;;;;-146.27;90.07;42866.44;5067168;28;20532;-74
2024/02/19 07:36:48;;;;;;;14.85;3.85;;;;;;;-146.27;90.10;42868.41;5068695;28;20107;-73
2024/02/19 07:39:14;;;;;;;13.73;4.28;;;;;;;-146.27;90.54;42910.19;5067084;28;20037;-73
2024/02/19 07:41:39;;;;;;;15.85;5.28;;;;;;;-146.27;89.91;42832.63;5067997;28;20082;-74
2024/02/19 07:44:05;;;;;;;11.10;3.80;;;;;;;-146.27;90.28;42798.81;5068492;28;20127;-73
2024/02/19 07:46:30;;;;;;;31.13;5.35;;;;;;;-146.27;91.04;42846.53;5069319;28;20012;-72
2024/02/19 07:48:56;;;;;;;23.23;4.65;;;;;;;-146.27;90.78;42778.91;5068904;28;20136;-73
2024/02/19 07:51:21;;;;;;;16.63;4.47;;;;;;;-146.27;91.92;42794.84;5068980;28;20385;-73
2024/02/19 07:53:47;;;;;;;17.23;4.53;;;;;;;-146.27;91.31;42814.72;5068856;28;20024;-73
2024/02/19 07:56:12;;;;;;;20.02;4.63;;;;;;;-146.27;90.68;42695.38;5068738;28;20035;-73
2024/02/19 07:58:38;;;;;;;18.80;4.28;;;;;;;-146.27;90.28;42729.19;5067293;28;20034;-72
2024/02/19 08:01:03;;;;;;;17.20;4.68;;;;;;;-146.27;89.99;42717.25;5069258;28;20025;-74
2024/02/19 08:03:30;;;;;;;12.38;4.20;;;;;;;-146.27;90.76;42770.97;5068422;28;20032;-73
2024/02/19 08:05:55;;;;;;;16.27;4.35;;;;;;;-146.27;90.75;42802.78;5069430;28;20113;-72
2024/02/19 08:08:21;;;;;;;16.55;4.20;;;;;;;-146.27;91.18;42812.72;5071396;28;20051;-71
2024/02/19 08:10:47;;;;;;;19.17;5.35;;;;;;;-146.27;91.68;42834.59;5071493;28;20025;-74
2024/02/19 08:13:13;;;;;;;23.95;5.60;;;;;;;-146.27;90.47;42753.06;5072847;28;20039;-73
2024/02/19 08:15:40;;;;;;;17.20;4.18;;;;;;;-146.27;90.20;42747.09;5072794;28;20051;-74
2024/02/19 08:18:07;;;;;;;15.80;3.95;;;;;;;-146.27;90.88;42804.78;5067368;28;20036;-72
2024/02/19 08:20:33;;;;;;;15.88;4.03;;;;;;;-146.27;91.06;42828.66;5066318;28;20445;-73
2024/02/19 08:22:58;;;;;;;20.73;3.72;;;;;;;-146.27;90.12;42763.00;5072901;28;20111;-73
2024/02/19 08:25:24;;;;;;;16.15;3.50;;;;;;;-146.27;90.65;42840.56;5072504;28;20044;-73
2024/02/19 08:27:49;;;;;;;25.33;4.07;;;;;;;-146.27;90.03;42737.16;5072666;28;20435;-72
2024/02/19 08:30:15;;;;;;;14.68;3.00;;;;;;;-146.27;90.60;42832.63;5070966;28;20449;-72
2024/02/19 08:32:41;;;;;;;16.48;3.70;;;;;;;-146.27;90.58;42820.69;5071656;28;20036;-73
2024/02/19 08:35:07;;;;;;;15.57;3.67;;;;;;;-146.27;89.56;42814.72;5072475;28;20029;-72
2024/02/19 08:37:32;;;;;;;19.90;3.38;;;;;;;-146.27;90.21;42848.53;5071449;28;20105;-73
2024/02/19 08:39:57;;;;;;;12.55;3.03;;;;;;;-146.27;89.09;42780.91;5072173;28;20074;-72
2024/02/19 08:42:23;;;;;;;15.70;3.08;;;;;;;-146.27;88.99;42790.84;5071831;28;20020;-72
2024/02/19 08:44:48;;;;;;;16.35;3.08;;;;;;;-146.27;88.97;42812.72;5070177;28;20031;-72
2024/02/19 08:47:15;;;;;;;11.75;3.15;;;;;;;-146.27;88.40;42788.88;5070575;28;20032;-73
2024/02/19 08:49:41;;;;;;;16.85;4.07;;;;;;;-146.27;88.24;42856.50;5071178;28;20519;-72
2024/02/19 08:52:06;;;;;;;17.15;3.20;;;;;;;-146.27;88.05;42786.88;5071488;28;20123;-73
2024/02/19 08:54:32;;;;;;;11.25;2.70;;;;;;;-146.27;87.78;42778.91;5072333;28;20104;-74
2024/02/19 08:56:58;;;;;;;12.85;2.60;;;;;;;-146.27;88.21;42822.69;5072134;28;20111;-72
2024/02/19 08:59:23;;;;;;;12.38;2.97;;;;;;;-146.27;87.85;42836.59;5070173;28;20365;-74
2024/02/19 09:01:49;;;;;;;11.07;2.78;;;;;;;-146.27;86.97;42737.16;5072362;28;20044;-72
2024/02/19 09:04:15;;;;;;;13.68;3.50;;;;;;;-146.27;87.87;42874.38;5072199;28;20118;-72
2024/02/19 09:06:40;;;;;;;10.40;2.83;;;;;;;-146.27;87.57;42824.66;5071325;28;20126;-72
2024/02/19 09:09:07;;;;;;;9.50;2.70;;;;;;;-146.27;86.32;42765.00;5071285;28;20024;-73
2024/02/19 09:11:32;;;;;;;10.55;2.53;;;;;;;-146.27;86.67;42866.44;5071518;28;20082;-72
2024/02/19 09:13:58;;;;;;;9.15;2.17;;;;;;;-146.27;85.98;42834.59;5072367;28;20027;-72
2024/02/19 09:16:23;;;;;;;12.80;2.22;;;;;;;-146.27;87.06;42944.00;5073325;28;20105;-73
2024/02/19 09:18:49;;;;;;;11.80;3.35;;;;;;;-146.27;85.94;42852.50;5080807;28;20126;-72
2024/02/19 09:21:14;;;;;;;10.98;2.22;;;;;;;-146.27;85.78;42902.22;5074019;28;20024;-72
2024/02/19 09:23:40;;;;;;;9.70;2.10;;;;;;;-146.27;85.68;42858.47;5070555;28;20565;-72
2024/02/19 09:26:12;;;;;;;11.35;1.92;;;;;;;-146.27;85.38;42782.91;5070843;28;20049;-72
2024/02/19 09:28:38;;;;;;;10.90;2.90;;;;;;;-146.27;85.70;42836.59;5074000;28;20509;-72
2024/02/19 09:31:05;;;;;;;6.82;1.52;;;;;;;-146.27;84.80;42745.09;5084002;28;20452;-73
2024/02/19 09:33:30;;;;;;;10.07;2.20;;;;;;;-146.27;85.06;42770.97;5079807;28;20078;-72
2024/02/19 09:35:56;;;;;;;9.52;1.95;;;;;;;-146.27;85.54;42862.47;5075447;28;20035;-74
2024/02/19 09:38:21;;;;;;;7.97;1.95;;;;;;;-146.27;85.78;42838.59;5075241;28;20078;-71
2024/02/19 09:40:49;;;;;;;12.77;1.98;;;;;;;-146.27;84.56;42772.97;5086433;28;20028;-73
2024/02/19 09:43:17;;;;;;;11.95;2.30;;;;;;;-146.27;84.31;42770.97;5072904;28;20020;-72
2024/02/19 09:45:43;;;;;;;8.95;1.98;;;;;;;-146.27;84.70;42870.41;5078610;28;20442;-73
2024/02/19 09:48:10;;;;;;;7.72;1.88;;;;;;;-146.27;84.51;42918.16;5079320;28;20465;-73
2024/02/19 09:50:43;;;;;;;9.05;2.13;;;;;;;-146.27;84.18;42812.72;5087333;28;20020;-73
2024/02/19 09:53:10;;;;;;;7.75;1.88;;;;;;;-146.27;83.85;42767.00;5076889;28;20510;-72
2024/02/19 09:55:37;;;;;;;13.82;2.63;;;;;;;-146.27;83.57;42757.03;5078310;28;20021;-73
2024/02/19 09:58:04;;;;;;;15.23;2.30;;;;;;;-146.27;83.28;42822.69;5071254;28;20050;-72
2024/02/19 10:00:29;;;;;;;13.45;1.83;;;;;;;-146.27;83.25;42774.94;5068133;28;20532;-73
2024/02/19 10:02:55;;;;;;;9.50;2.17;;;;;;;-146.27;83.51;42878.38;5071709;28;20022;-73
2024/02/19 10:05:21;;;;;;;6.90;1.52;;;;;;;-146.27;83.14;42796.81;5077270;28;20046;-71
2024/02/19 10:07:46;;;;;;;8.23;2.35;;;;;;;-146.27;82.79;42767.00;5083626;28;20039;-73
2024/02/19 10:10:12;;;;;;;7.28;1.98;;;;;;;-146.27;82.39;42767.00;5073178;28;20090;-73
2024/02/19 10:12:42;;;;;;;10.60;1.58;;;;;;;-146.27;82.75;42834.59;5082636;28;20643;-73
2024/02/19 10:15:08;;;;;;;9.30;2.22;;;;;;;-146.27;82.26;42834.59;5082427;28;20074;-73
2024/02/19 10:17:34;;;;;;;7.40;1.77;;;;;;;-146.27;82.08;42830.63;5073873;28;20032;-72
2024/02/19 10:20:01;;;;;;;14.07;1.80;;;;;;;-146.27;81.63;42850.53;5084025;28;20093;-73
2024/02/19 10:22:27;;;;;;;17.27;2.00;;;;;;;-146.27;82.15;42878.38;5080733;28;20016;-72
2024/02/19 10:24:52;;;;;;;11.93;2.00;;;;;;;-146.27;81.94;42848.53;5079576;28;20156;-73
2024/02/19 10:27:18;;;;;;;7.40;2.20;;;;;;;-146.27;81.63;42812.72;5069730;28;20403;-72
2024/02/19 10:29:46;;;;;;;6.43;1.98;;;;;;;-146.27;81.36;42794.84;5069910;28;20508;-74
2024/02/19 10:32:12;;;;;;;11.65;1.50;;;;;;;-146.27;81.16;42798.81;5068992;28;20111;-72
2024/02/19 10:34:38;;;;;;;14.05;1.85;;;;;;;-146.27;81.25;42818.69;5065064;28;20031;-72
2024/02/19 10:37:05;;;;;;;10.77;1.88;;;;;;;-146.27;80.42;42774.94;5079751;28;20600;-73
2024/02/19 10:39:31;;;;;;;11.38;1.75;;;;;;;-146.27;80.75;42818.69;5079144;28;20373;-72
2024/02/19 10:42:01;;;;;;;10.43;1.98;;;;;;;-146.27;80.28;42695.38;5084471;28;20095;-73
2024/02/19 10:44:27;;;;;;;13.65;1.92;;;;;;;-146.27;79.91;42723.22;5073353;28;20099;-74
2024/02/19 10:46:53;;;;;;;8.07;2.00;;;;;;;-146.27;80.12;42703.34;5077750;28;20100;-73
2024/02/19 10:49:19;;;;;;;12.88;2.17;;;;;;;-146.27;81.12;42774.94;5069504;28;20625;-73
2024/02/19 10:51:46;;;;;;;12.18;1.42;;;;;;;-146.27;81.31;42818.69;5074924;28;20025;-73
2024/02/19 10:54:15;;;;;;;10.45;2.47;;;;;;;-146.27;81.46;42818.69;5086067;28;20058;-73
2024/02/19 10:56:44;;;;;;;7.28;1.75;;;;;;;-146.27;81.35;42838.59;5057577;28;20772;-73
2024/02/19 10:59:11;;;;;;;6.07;1.83;;;;;;;-146.27;81.23;42834.59;5081706;28;20361;-75
2024/02/19 11:01:39;;;;;;;10.77;2.38;;;;;;;-146.27;81.87;42914.16;5080118;28;20416;-74
2024/02/19 11:04:16;;;;;;;10.82;1.92;;;;;;;-146.27;81.97;42898.25;5074340;28;20020;-74